createdAt,value
2023-02-28T00:01:30.075Z,61.88
2023-02-28T00:03:57.322Z,60.77
2023-02-28T00:06:25.461Z,61.17
2023-02-28T00:08:52.614Z,61.35
2023-02-28T00:11:19.609Z,61.06
2023-02-28T00:13:48.371Z,61.72
2023-02-28T00:16:19.297Z,61.49
2023-02-28T00:18:46.362Z,59.89
2023-02-28T00:21:13.249Z,60.55
2023-02-28T00:23:40.219Z,60.21
2023-02-28T00:26:07.131Z,61.04
2023-02-28T00:28:34.164Z,61.22
2023-02-28T00:31:01.370Z,61.87
2023-02-28T00:33:29.286Z,63.05
2023-02-28T00:36:06.473Z,63.20
2023-02-28T00:38:33.652Z,61.33
2023-02-28T00:41:05.824Z,62.33
2023-02-28T00:43:37.438Z,64.04
2023-02-28T00:46:04.954Z,66.53
2023-02-28T00:48:32.112Z,63.60
2023-02-28T00:50:59.066Z,66.00
2023-02-28T00:53:26.298Z,67.88
2023-02-28T00:55:53.431Z,71.74
2023-02-28T00:58:20.579Z,77.05
2023-02-28T01:00:50.275Z,77.72
2023-02-28T01:03:19.280Z,79.29
2023-02-28T01:05:46.719Z,79.22
2023-02-28T01:08:14.848Z,83.03
2023-02-28T01:10:41.975Z,84.06
2023-02-28T01:13:08.902Z,83.12
2023-02-28T01:15:35.926Z,81.79
2023-02-28T01:18:02.959Z,79.25
2023-02-28T01:20:29.836Z,77.85
2023-02-28T01:22:56.710Z,80.24
2023-02-28T01:25:23.779Z,80.78
2023-02-28T01:27:50.645Z,80.35
2023-02-28T01:30:17.665Z,82.40
2023-02-28T01:32:44.536Z,80.98
2023-02-28T01:35:11.459Z,78.70
2023-02-28T01:37:38.353Z,77.73
2023-02-28T01:40:05.900Z,77.74
2023-02-28T01:42:32.806Z,80.23
2023-02-28T01:45:05.325Z,77.60
2023-02-28T01:47:44.809Z,75.61
2023-02-28T01:50:18.796Z,79.83
2023-02-28T01:52:48.328Z,78.58
2023-02-28T01:55:18.029Z,77.52
2023-02-28T01:57:47.611Z,74.23
2023-02-28T02:00:17.934Z,74.42
2023-02-28T02:02:48.788Z,72.61
2023-02-28T02:05:18.921Z,71.41
2023-02-28T02:07:49.560Z,70.80
2023-02-28T02:10:20.148Z,72.34
2023-02-28T02:12:52.857Z,70.62
2023-02-28T02:15:35.886Z,75.27
2023-02-28T02:18:13.960Z,72.08
2023-02-28T02:20:52.751Z,70.85
2023-02-28T02:23:37.953Z,72.97
2023-02-28T02:26:49.767Z,72.07
2023-02-28T02:29:43.992Z,74.55
2023-02-28T02:32:45.953Z,71.02
2023-02-28T02:35:29.659Z,75.65
2023-02-28T02:38:21.503Z,72.27
2023-02-28T02:41:15.109Z,74.05
2023-02-28T02:44:04.147Z,74.15
2023-02-28T02:46:33.106Z,72.68
2023-02-28T02:49:04.138Z,72.51
2023-02-28T02:51:33.942Z,72.02
2023-02-28T02:54:06.796Z,70.25
2023-02-28T02:56:36.143Z,70.47
2023-02-28T02:59:06.539Z,68.36
2023-02-28T03:01:35.959Z,70.22
2023-02-28T03:04:08.881Z,68.41
2023-02-28T03:06:36.540Z,68.55
2023-02-28T03:09:04.008Z,68.08
2023-02-28T03:11:31.532Z,70.19
2023-02-28T03:14:37.262Z,72.02
2023-02-28T03:17:22.004Z,73.05
2023-02-28T03:19:51.715Z,70.42
2023-02-28T03:22:57.015Z,69.49
2023-02-28T03:25:48.422Z,68.42
2023-02-28T03:28:18.239Z,70.46
2023-02-28T03:30:55.112Z,70.65
2023-02-28T03:33:31.562Z,70.38
2023-02-28T03:36:09.397Z,72.18
2023-02-28T03:38:41.868Z,73.56
2023-02-28T03:41:17.424Z,72.78
2023-02-28T03:43:51.765Z,71.76
2023-02-28T03:46:24.695Z,72.05
2023-02-28T03:49:06.436Z,72.01
2023-02-28T03:51:34.165Z,70.88
2023-02-28T03:54:12.870Z,71.10
2023-02-28T03:56:44.935Z,72.21
2023-02-28T03:59:19.748Z,71.15
2023-02-28T04:01:49.728Z,70.41
2023-02-28T04:04:18.062Z,73.19
2023-02-28T04:06:45.885Z,71.69
2023-02-28T04:09:15.919Z,72.52
2023-02-28T04:11:46.507Z,71.48
2023-02-28T04:14:13.725Z,71.02
2023-02-28T04:16:42.869Z,72.88
2023-02-28T04:19:11.826Z,70.27
2023-02-28T04:21:42.045Z,69.88
2023-02-28T04:24:15.439Z,70.15
2023-02-28T04:26:45.199Z,71.52
2023-02-28T04:29:14.500Z,72.95
2023-02-28T04:31:41.702Z,71.88
2023-02-28T04:34:08.695Z,70.45
2023-02-28T04:36:36.014Z,73.37
2023-02-28T04:39:03.525Z,75.97
2023-02-28T04:41:32.675Z,74.86
2023-02-28T04:44:00.059Z,76.16
2023-02-28T04:46:27.052Z,75.83
2023-02-28T04:48:55.531Z,73.87
2023-02-28T04:51:22.440Z,73.86
2023-02-28T04:53:50.084Z,74.24
2023-02-28T04:56:19.365Z,74.72
2023-02-28T04:58:46.531Z,76.20
2023-02-28T05:01:26.044Z,74.41
2023-02-28T05:03:54.625Z,73.62
2023-02-28T05:06:22.968Z,74.83
2023-02-28T05:08:49.831Z,73.02
2023-02-28T05:11:30.518Z,75.72
2023-02-28T05:13:57.666Z,76.38
2023-02-28T05:16:24.716Z,71.04
2023-02-28T05:18:51.747Z,71.42
2023-02-28T05:21:29.493Z,73.33
2023-02-28T05:23:58.692Z,74.16
2023-02-28T05:26:25.869Z,73.09
2023-02-28T05:28:52.909Z,71.17
2023-02-28T05:31:19.925Z,70.71
2023-02-28T05:33:47.227Z,69.72
2023-02-28T05:36:14.304Z,67.67
2023-02-28T05:38:41.225Z,67.47
2023-02-28T05:41:10.439Z,66.74
2023-02-28T05:43:38.660Z,64.54
2023-02-28T05:46:11.191Z,65.39
2023-02-28T05:48:39.602Z,66.66
2023-02-28T05:51:07.791Z,63.39
2023-02-28T05:53:35.120Z,61.83
2023-02-28T05:56:02.476Z,62.50
2023-02-28T05:58:32.032Z,62.32
2023-02-28T06:01:19.726Z,65.93
2023-02-28T06:03:46.634Z,64.45
2023-02-28T06:06:13.539Z,62.96
2023-02-28T06:08:40.409Z,66.12
2023-02-28T06:11:07.970Z,63.00
2023-02-28T06:13:34.842Z,62.17
2023-02-28T06:16:02.544Z,63.08
2023-02-28T06:18:29.527Z,64.14
2023-02-28T06:20:57.217Z,64.20
2023-02-28T06:23:25.101Z,63.53
2023-02-28T06:25:52.079Z,61.50
2023-02-28T06:28:18.997Z,59.01
2023-02-28T06:30:46.623Z,60.40
2023-02-28T06:33:13.528Z,57.88
2023-02-28T06:35:40.742Z,57.98
2023-02-28T06:38:07.739Z,60.08
2023-02-28T06:40:37.994Z,58.17
2023-02-28T06:43:05.118Z,58.92
2023-02-28T06:45:32.028Z,56.96
2023-02-28T06:47:59.325Z,55.57
2023-02-28T06:50:26.537Z,57.34
2023-02-28T06:52:55.131Z,58.69
2023-02-28T06:55:21.971Z,58.65
2023-02-28T06:57:49.012Z,57.77
2023-02-28T07:00:16.479Z,57.01
2023-02-28T07:02:43.518Z,56.71
2023-02-28T07:05:10.452Z,56.33
2023-02-28T07:07:39.651Z,54.90
2023-02-28T07:10:06.991Z,55.74
2023-02-28T07:12:33.986Z,54.87
2023-02-28T07:15:00.976Z,56.69
2023-02-28T07:17:28.987Z,60.31
2023-02-28T07:19:57.586Z,56.44
2023-02-28T07:22:26.758Z,57.98
2023-02-28T07:24:53.792Z,57.12
2023-02-28T07:27:27.054Z,59.31
2023-02-28T07:29:54.555Z,57.51
2023-02-28T07:32:23.167Z,59.25
2023-02-28T07:34:50.425Z,58.38
2023-02-28T07:37:17.382Z,58.34
2023-02-28T07:39:44.260Z,57.26
2023-02-28T07:42:13.030Z,57.72
2023-02-28T07:44:41.794Z,58.46
2023-02-28T07:47:10.303Z,58.21
2023-02-28T07:49:38.221Z,59.12
2023-02-28T07:52:07.378Z,58.15
2023-02-28T07:54:35.274Z,57.38
2023-02-28T07:57:02.286Z,60.01
2023-02-28T07:59:31.902Z,59.74
2023-02-28T08:02:00.420Z,60.58
2023-02-28T08:04:27.870Z,58.11
2023-02-28T08:06:55.229Z,57.32
2023-02-28T08:09:22.184Z,58.07
2023-02-28T08:11:51.109Z,57.69
2023-02-28T08:14:18.003Z,56.86
2023-02-28T08:16:45.085Z,55.07
2023-02-28T08:19:12.063Z,55.30
2023-02-28T08:21:39.058Z,54.64
2023-02-28T08:24:06.494Z,55.44
2023-02-28T08:26:33.395Z,51.77
2023-02-28T08:29:01.512Z,51.13
2023-02-28T08:31:29.255Z,51.72
2023-02-28T08:34:01.940Z,51.45
2023-02-28T08:36:29.984Z,51.65
2023-02-28T08:38:59.195Z,49.46
2023-02-28T08:41:26.212Z,47.92
2023-02-28T08:43:56.843Z,46.21
2023-02-28T08:46:24.651Z,49.13
2023-02-28T08:48:55.990Z,47.41
2023-02-28T08:51:28.278Z,49.52
2023-02-28T08:53:59.627Z,47.41
2023-02-28T08:56:28.299Z,46.36
2023-02-28T08:58:56.870Z,47.47
2023-02-28T09:01:28.587Z,47.38
2023-02-28T09:06:29.205Z,46.52
2023-02-28T09:09:00.700Z,46.53
2023-02-28T09:11:38.726Z,44.49
2023-02-28T09:14:06.198Z,45.43
2023-02-28T09:16:34.662Z,44.89
2023-02-28T09:19:02.804Z,43.59
2023-02-28T09:21:33.140Z,43.52
2023-02-28T09:24:00.108Z,45.13
2023-02-28T09:26:34.868Z,42.95
2023-02-28T09:29:10.066Z,40.21
2023-02-28T09:31:37.150Z,38.39
2023-02-28T09:34:07.760Z,38.98
2023-02-28T09:36:44.684Z,38.25
2023-02-28T09:39:13.724Z,40.13
2023-02-28T09:41:53.424Z,38.39
2023-02-28T09:44:39.431Z,37.85
2023-02-28T09:47:18.079Z,36.70
2023-02-28T09:49:49.504Z,36.02
2023-02-28T09:52:31.624Z,36.60
2023-02-28T09:55:19.176Z,33.50
2023-02-28T09:57:47.024Z,33.08
2023-02-28T10:00:26.060Z,33.41
2023-02-28T10:03:36.169Z,32.59
2023-02-28T10:06:29.797Z,32.55
2023-02-28T10:09:17.096Z,31.15
2023-02-28T10:14:21.681Z,32.95
2023-02-28T10:17:14.677Z,32.42
2023-02-28T10:19:41.585Z,35.42
2023-02-28T10:22:18.592Z,35.53
2023-02-28T10:24:55.554Z,37.71
2023-02-28T10:27:25.038Z,39.64
2023-02-28T10:30:01.716Z,36.19
2023-02-28T10:32:37.158Z,36.43
2023-02-28T10:35:19.450Z,33.99
2023-02-28T10:37:51.708Z,33.30
2023-02-28T10:40:18.547Z,35.50
2023-02-28T10:43:02.847Z,33.80
2023-02-28T10:45:33.139Z,33.06
2023-02-28T10:48:07.464Z,34.22
2023-02-28T10:50:50.904Z,32.87
2023-02-28T10:53:26.941Z,34.09
2023-02-28T10:56:20.202Z,37.20
2023-02-28T10:58:52.520Z,38.21
2023-02-28T11:01:35.295Z,37.73
2023-02-28T11:04:02.905Z,37.45
2023-02-28T11:06:36.806Z,37.01
2023-02-28T11:09:25.438Z,35.77
2023-02-28T11:11:54.087Z,34.46
2023-02-28T11:14:28.924Z,34.92
2023-02-28T11:16:59.606Z,37.30
2023-02-28T11:19:35.213Z,34.64
2023-02-28T11:22:06.090Z,34.75
2023-02-28T11:24:41.016Z,35.56
2023-02-28T11:27:25.464Z,35.36
2023-02-28T11:29:52.608Z,39.03
2023-02-28T11:32:30.142Z,35.53
2023-02-28T11:35:12.340Z,37.17
2023-02-28T11:37:40.457Z,37.86
2023-02-28T11:40:19.548Z,39.57
2023-02-28T11:42:52.788Z,39.72
2023-02-28T11:45:50.350Z,39.60
2023-02-28T11:48:22.293Z,40.74
2023-02-28T11:51:28.063Z,40.69
2023-02-28T11:54:07.103Z,40.12
2023-02-28T11:56:37.003Z,40.60
2023-02-28T11:59:38.255Z,37.95
2023-02-28T12:02:26.373Z,38.65
2023-02-28T12:05:11.220Z,40.98
2023-02-28T12:08:01.864Z,40.33
2023-02-28T12:10:31.606Z,39.33
2023-02-28T12:13:27.349Z,40.42
2023-02-28T12:16:18.942Z,41.37
2023-02-28T12:19:08.190Z,42.16
2023-02-28T12:21:54.610Z,40.36
2023-02-28T12:24:35.393Z,40.22
2023-02-28T12:27:07.463Z,40.17
2023-02-28T12:29:46.969Z,38.57
2023-02-28T12:32:23.053Z,41.71
2023-02-28T12:35:02.301Z,41.76
2023-02-28T12:37:45.000Z,43.25
2023-02-28T12:40:21.497Z,44.53
2023-02-28T12:42:54.298Z,43.11
2023-02-28T12:45:26.285Z,41.45
2023-02-28T12:48:05.446Z,42.00
2023-02-28T12:50:34.460Z,42.94
2023-02-28T12:53:32.431Z,43.49
2023-02-28T12:55:59.387Z,43.02
2023-02-28T12:58:33.771Z,42.56
2023-02-28T13:01:27.034Z,43.56
2023-02-28T13:04:26.150Z,43.62
2023-02-28T13:07:11.266Z,43.82
2023-02-28T13:09:40.058Z,44.87
2023-02-28T13:12:17.891Z,43.76
2023-02-28T13:14:45.156Z,43.95
2023-02-28T13:17:22.380Z,43.98
2023-02-28T13:19:55.436Z,45.28
2023-02-28T13:22:22.408Z,45.50
2023-02-28T13:24:52.865Z,44.36
2023-02-28T13:27:26.608Z,44.67
2023-02-28T13:29:54.581Z,44.35
2023-02-28T13:32:33.077Z,44.51
2023-02-28T13:34:59.862Z,45.07
2023-02-28T13:37:26.716Z,45.24
2023-02-28T13:40:00.578Z,44.54
2023-02-28T13:42:50.765Z,44.64
2023-02-28T13:45:29.203Z,45.14
2023-02-28T13:48:01.102Z,46.02
2023-02-28T13:50:30.209Z,46.25
2023-02-28T13:53:15.505Z,46.94
2023-02-28T13:56:07.778Z,46.88
2023-02-28T13:58:53.345Z,46.07
2023-02-28T14:01:56.941Z,45.32
2023-02-28T14:04:45.577Z,45.31
2023-02-28T14:07:24.439Z,45.44
2023-02-28T14:09:58.672Z,45.79
2023-02-28T14:12:56.981Z,45.86
2023-02-28T14:15:49.396Z,45.65
2023-02-28T14:18:27.398Z,44.30
2023-02-28T14:21:27.565Z,43.77
2023-02-28T14:24:19.065Z,43.90
2023-02-28T14:27:17.006Z,43.59
2023-02-28T14:30:17.910Z,43.63
2023-02-28T14:33:15.230Z,44.11
2023-02-28T14:36:00.312Z,43.57
2023-02-28T14:38:41.587Z,44.75
2023-02-28T14:41:39.963Z,43.50
2023-02-28T14:44:24.872Z,43.11
2023-02-28T14:46:58.034Z,42.41
2023-02-28T14:49:29.675Z,42.79
2023-02-28T14:52:05.000Z,43.20
2023-02-28T14:54:32.047Z,44.37
2023-02-28T14:56:59.166Z,43.23
2023-02-28T14:59:36.857Z,42.55
2023-02-28T15:02:24.673Z,42.50
2023-02-28T15:05:03.474Z,44.17
2023-02-28T15:07:32.822Z,43.62
2023-02-28T15:10:28.093Z,44.33
2023-02-28T15:12:59.250Z,45.50
2023-02-28T15:15:46.160Z,45.69
2023-02-28T15:18:39.744Z,47.18
2023-02-28T15:21:12.709Z,46.44
2023-02-28T15:23:44.852Z,48.23
2023-02-28T15:26:20.787Z,48.29
2023-02-28T15:28:50.562Z,47.24
2023-02-28T15:31:56.004Z,47.70
2023-02-28T15:34:42.941Z,49.62
2023-02-28T15:38:03.225Z,49.43
2023-02-28T15:40:44.132Z,49.14
2023-02-28T15:43:24.302Z,48.79
2023-02-28T15:46:07.750Z,48.77
2023-02-28T15:48:38.428Z,47.97
2023-02-28T15:51:25.713Z,50.21
2023-02-28T15:53:58.614Z,48.68
2023-02-28T15:56:30.354Z,48.48
2023-02-28T15:59:04.228Z,48.22
2023-02-28T16:01:39.281Z,48.04
2023-02-28T16:04:17.702Z,48.11
2023-02-28T16:06:47.734Z,50.25
2023-02-28T16:09:18.321Z,48.21
2023-02-28T16:11:49.349Z,46.94
2023-02-28T16:14:24.145Z,48.77
2023-02-28T16:16:54.686Z,48.51
2023-02-28T16:19:24.349Z,50.01
2023-02-28T16:21:52.358Z,47.56
2023-02-28T16:24:19.299Z,49.15
2023-02-28T16:26:49.444Z,48.12
2023-02-28T16:29:27.622Z,48.20
2023-02-28T16:31:54.920Z,48.79
2023-02-28T16:34:22.206Z,49.81
2023-02-28T16:36:50.242Z,48.70
2023-02-28T16:39:19.336Z,48.48
2023-02-28T16:41:48.190Z,49.49
2023-02-28T16:44:38.450Z,49.13
2023-02-28T16:47:05.784Z,47.75
2023-02-28T16:49:32.748Z,49.87
2023-02-28T16:51:59.783Z,49.69
2023-02-28T16:54:26.789Z,48.70
2023-02-28T16:56:54.085Z,48.15
2023-02-28T16:59:25.899Z,48.44
2023-02-28T17:01:53.220Z,48.67
2023-02-28T17:04:20.531Z,48.08
2023-02-28T17:06:47.578Z,50.17
2023-02-28T17:09:28.370Z,51.01
2023-02-28T17:12:00.104Z,50.77
2023-02-28T17:14:27.066Z,50.79
2023-02-28T17:16:53.955Z,49.91
2023-02-28T17:19:21.780Z,50.80
2023-02-28T17:21:48.859Z,52.39
2023-02-28T17:24:28.908Z,50.73
2023-02-28T17:26:57.516Z,51.35
2023-02-28T17:29:27.692Z,50.50
2023-02-28T17:31:54.941Z,51.15
2023-02-28T17:34:23.109Z,53.15
2023-02-28T17:36:52.267Z,54.12
2023-02-28T17:39:26.860Z,54.10
2023-02-28T17:41:55.205Z,54.84
2023-02-28T17:44:23.483Z,54.44
2023-02-28T17:46:50.732Z,54.18
2023-02-28T17:49:19.217Z,53.31
2023-02-28T17:51:46.543Z,53.95
2023-02-28T17:54:15.105Z,54.99
2023-02-28T17:56:44.223Z,54.56
2023-02-28T17:59:12.869Z,54.78
2023-02-28T18:01:40.698Z,54.97
2023-02-28T18:04:07.806Z,54.35
2023-02-28T18:06:47.490Z,53.25
2023-02-28T18:09:19.769Z,52.46
2023-02-28T18:11:46.583Z,52.73
2023-02-28T18:14:13.800Z,53.95
2023-02-28T18:16:40.767Z,54.81
2023-02-28T18:19:08.702Z,53.17
2023-02-28T18:21:36.409Z,55.94
2023-02-28T18:24:03.404Z,55.61
2023-02-28T18:26:30.624Z,53.87
2023-02-28T18:28:57.841Z,54.09
2023-02-28T18:31:24.690Z,54.07
2023-02-28T18:33:53.359Z,53.84
2023-02-28T18:36:22.192Z,53.78
2023-02-28T18:38:50.686Z,53.39
2023-02-28T18:41:20.938Z,53.76
2023-02-28T18:43:49.761Z,54.01
2023-02-28T18:46:19.559Z,53.52
2023-02-28T18:48:47.573Z,54.02
2023-02-28T18:51:20.014Z,52.86
2023-02-28T18:53:47.385Z,52.77
2023-02-28T18:56:16.609Z,51.79
2023-02-28T18:58:43.908Z,52.32
2023-02-28T19:01:27.149Z,52.45
2023-02-28T19:03:54.078Z,52.64
2023-02-28T19:06:21.183Z,52.09
2023-02-28T19:08:49.488Z,51.47
2023-02-28T19:11:18.592Z,51.26
2023-02-28T19:13:46.602Z,51.88
2023-02-28T19:16:16.220Z,51.68
2023-02-28T19:18:43.637Z,52.40
2023-02-28T19:21:12.549Z,52.74
2023-02-28T19:23:41.378Z,52.75
2023-02-28T19:26:21.086Z,52.03
2023-02-28T19:28:49.038Z,52.06
2023-02-28T19:31:24.414Z,52.20
2023-02-28T19:33:56.206Z,52.17
2023-02-28T19:36:24.156Z,52.48
2023-02-28T19:38:51.114Z,52.25
2023-02-28T19:41:18.429Z,51.77
2023-02-28T19:43:45.848Z,51.55
2023-02-28T19:46:14.015Z,51.18
2023-02-28T19:48:42.559Z,50.65
2023-02-28T19:51:12.608Z,50.58
2023-02-28T19:53:41.667Z,50.47
2023-02-28T19:56:09.822Z,50.91
2023-02-28T19:58:37.584Z,51.02
2023-02-28T20:01:16.209Z,50.84
2023-02-28T20:03:43.711Z,51.59
2023-02-28T20:06:15.741Z,51.07
2023-02-28T20:08:43.270Z,51.02
2023-02-28T20:11:16.808Z,51.34
2023-02-28T20:13:45.396Z,51.50
2023-02-28T20:16:14.227Z,52.27
2023-02-28T20:18:44.384Z,52.37
2023-02-28T20:21:12.711Z,51.59
2023-02-28T20:23:40.522Z,51.43
2023-02-28T20:26:08.184Z,51.98
2023-02-28T20:28:35.118Z,52.55
2023-02-28T20:31:02.157Z,52.62
2023-02-28T20:33:29.247Z,52.55
2023-02-28T20:36:02.932Z,52.56
2023-02-28T20:38:29.854Z,52.09
2023-02-28T20:40:59.500Z,51.82
2023-02-28T20:43:26.502Z,51.37
2023-02-28T20:45:55.139Z,51.75
2023-02-28T20:48:22.561Z,51.64
2023-02-28T20:50:54.655Z,52.19
2023-02-28T20:53:22.145Z,51.95
2023-02-28T20:56:11.340Z,51.86
2023-02-28T20:58:38.649Z,51.57
2023-02-28T21:01:12.993Z,51.45
2023-02-28T21:03:40.580Z,51.52
2023-02-28T21:06:08.267Z,52.07
2023-02-28T21:08:36.864Z,52.39
2023-02-28T21:11:09.115Z,52.99
2023-02-28T21:13:36.548Z,52.99
2023-02-28T21:16:05.772Z,52.82
2023-02-28T21:18:34.966Z,53.07
2023-02-28T21:21:11.363Z,53.93
2023-02-28T21:23:38.281Z,53.06
2023-02-28T21:26:07.803Z,52.64
2023-02-28T21:28:35.676Z,52.94
2023-02-28T21:31:07.949Z,54.67
2023-02-28T21:33:36.402Z,53.93
2023-02-28T21:36:06.538Z,54.89
2023-02-28T21:38:35.144Z,56.04
2023-02-28T21:41:10.500Z,56.92
2023-02-28T21:43:37.942Z,57.00
2023-02-28T21:46:07.216Z,56.94
2023-02-28T21:48:34.937Z,56.50
2023-02-28T21:51:07.349Z,56.95
2023-02-28T21:53:36.579Z,57.71
2023-02-28T21:56:06.094Z,58.38
2023-02-28T21:58:33.478Z,56.70
2023-02-28T22:01:12.550Z,57.33
2023-02-28T22:03:39.749Z,56.81
2023-02-28T22:06:22.065Z,57.39
2023-02-28T22:08:52.873Z,58.61
2023-02-28T22:11:21.293Z,61.98
2023-02-28T22:13:48.948Z,59.51
2023-02-28T22:16:18.795Z,59.62
2023-02-28T22:18:45.953Z,59.64
2023-02-28T22:21:14.263Z,60.71
2023-02-28T22:23:42.328Z,59.12
2023-02-28T22:26:11.714Z,59.14
2023-02-28T22:28:39.335Z,57.49
2023-02-28T22:31:15.073Z,57.95
2023-02-28T22:33:42.699Z,57.10
2023-02-28T22:36:10.297Z,57.71
2023-02-28T22:38:37.427Z,59.85
2023-02-28T22:41:05.682Z,59.05
2023-02-28T22:43:32.884Z,56.76
2023-02-28T22:46:04.914Z,56.42
2023-02-28T22:48:31.899Z,55.84
2023-02-28T22:51:16.475Z,56.09
2023-02-28T22:53:45.581Z,55.01
2023-02-28T22:56:14.674Z,55.57
2023-02-28T22:58:43.359Z,55.32
2023-02-28T23:01:17.059Z,54.66
2023-02-28T23:03:44.495Z,55.36
2023-02-28T23:06:30.008Z,55.62
2023-02-28T23:09:00.520Z,55.21
2023-02-28T23:11:33.683Z,55.67
2023-02-28T23:14:00.812Z,55.34
2023-02-28T23:16:35.170Z,54.98
2023-02-28T23:19:05.028Z,55.24
2023-02-28T23:21:32.057Z,56.43
2023-02-28T23:24:00.999Z,55.97
2023-02-28T23:26:28.094Z,55.51
2023-02-28T23:28:55.299Z,55.75
2023-02-28T23:31:22.312Z,55.66
2023-02-28T23:33:49.626Z,55.60
2023-02-28T23:36:17.418Z,56.02
2023-02-28T23:38:48.295Z,55.90
2023-02-28T23:41:16.122Z,56.24
2023-02-28T23:43:43.395Z,56.48
2023-02-28T23:46:12.163Z,55.75
2023-02-28T23:48:40.200Z,58.16
2023-02-28T23:51:10.941Z,56.86
2023-02-28T23:53:40.113Z,56.04
2023-02-28T23:56:08.998Z,55.55
2023-02-28T23:58:36.273Z,55.65
